sensor_id;sensor_type;location;lat;lon;timestamp;temperature;humidity
26272;DHT22;13997;48.902;12.472;2023-01-09T00:00:17;77.60;2227.20
26272;DHT22;13997;48.902;12.472;2023-01-09T00:02:43;77.60;2227.20
26272;DHT22;13997;48.902;12.472;2023-01-09T00:05:11;77.60;2227.20
26272;DHT22;13997;48.902;12.472;2023-01-09T00:07:37;77.60;2227.20
26272;DHT22;13997;48.902;12.472;2023-01-09T00:10:04;77.60;2227.20
26272;DHT22;13997;48.902;12.472;2023-01-09T00:12:30;77.60;2227.20
26272;DHT22;13997;48.902;12.472;2023-01-09T00:14:56;77.50;2227.20
26272;DHT22;13997;48.902;12.472;2023-01-09T00:17:22;77.50;2227.20
26272;DHT22;13997;48.902;12.472;2023-01-09T00:19:47;77.50;2227.20
26272;DHT22;13997;48.902;12.472;2023-01-09T00:22:13;77.50;2227.20
26272;DHT22;13997;48.902;12.472;2023-01-09T00:24:38;77.50;2227.20
26272;DHT22;13997;48.902;12.472;2023-01-09T00:27:05;77.50;2227.20
26272;DHT22;13997;48.902;12.472;2023-01-09T00:29:30;77.50;2227.20
26272;DHT22;13997;48.902;12.472;2023-01-09T00:31:56;77.40;2227.20
26272;DHT22;13997;48.902;12.472;2023-01-09T00:34:22;77.40;2227.20
26272;DHT22;13997;48.902;12.472;2023-01-09T00:36:48;77.40;2227.20
26272;DHT22;13997;48.902;12.472;2023-01-09T00:39:19;77.40;2227.20
26272;DHT22;13997;48.902;12.472;2023-01-09T00:41:47;77.40;2227.20
26272;DHT22;13997;48.902;12.472;2023-01-09T00:44:18;77.40;2227.20
26272;DHT22;13997;48.902;12.472;2023-01-09T00:46:54;77.40;2227.20
26272;DHT22;13997;48.902;12.472;2023-01-09T00:49:21;77.40;2227.20
26272;DHT22;13997;48.902;12.472;2023-01-09T00:51:47;77.40;2227.20
26272;DHT22;13997;48.902;12.472;2023-01-09T00:54:15;77.40;2227.20
26272;DHT22;13997;48.902;12.472;2023-01-09T00:56:41;77.40;2227.20
26272;DHT22;13997;48.902;12.472;2023-01-09T00:59:07;77.40;2227.20
26272;DHT22;13997;48.902;12.472;2023-01-09T01:01:32;77.40;2227.20
26272;DHT22;13997;48.902;12.472;2023-01-09T01:03:58;77.40;2227.20
26272;DHT22;13997;48.902;12.472;2023-01-09T01:06:43;77.40;2227.20
26272;DHT22;13997;48.902;12.472;2023-01-09T01:09:27;77.50;2227.20
26272;DHT22;13997;48.902;12.472;2023-01-09T01:11:53;77.50;2227.20
26272;DHT22;13997;48.902;12.472;2023-01-09T01:14:19;77.50;2227.20
26272;DHT22;13997;48.902;12.472;2023-01-09T01:16:44;77.60;2227.20
26272;DHT22;13997;48.902;12.472;2023-01-09T01:19:10;77.60;2227.20
26272;DHT22;13997;48.902;12.472;2023-01-09T01:21:35;77.60;2227.20
26272;DHT22;13997;48.902;12.472;2023-01-09T01:24:01;77.60;2227.20
26272;DHT22;13997;48.902;12.472;2023-01-09T01:26:26;77.60;2227.20
26272;DHT22;13997;48.902;12.472;2023-01-09T01:28:52;77.60;2227.20
26272;DHT22;13997;48.902;12.472;2023-01-09T01:31:18;77.60;2227.20
26272;DHT22;13997;48.902;12.472;2023-01-09T01:33:43;77.60;2227.20
26272;DHT22;13997;48.902;12.472;2023-01-09T01:36:10;77.60;2227.20
26272;DHT22;13997;48.902;12.472;2023-01-09T01:38:36;77.60;2227.20
26272;DHT22;13997;48.902;12.472;2023-01-09T01:41:02;77.60;2227.20
26272;DHT22;13997;48.902;12.472;2023-01-09T01:43:51;77.60;2227.20
26272;DHT22;13997;48.902;12.472;2023-01-09T01:46:18;77.60;2227.20
26272;DHT22;13997;48.902;12.472;2023-01-09T01:48:44;77.60;2227.20
26272;DHT22;13997;48.902;12.472;2023-01-09T01:51:10;77.60;2227.20
26272;DHT22;13997;48.902;12.472;2023-01-09T01:53:50;77.60;2227.20
26272;DHT22;13997;48.902;12.472;2023-01-09T01:56:27;77.70;2227.20
26272;DHT22;13997;48.902;12.472;2023-01-09T01:59:00;77.60;2227.20
26272;DHT22;13997;48.902;12.472;2023-01-09T02:01:28;77.60;2227.20
26272;DHT22;13997;48.902;12.472;2023-01-09T02:03:56;77.60;2227.20
26272;DHT22;13997;48.902;12.472;2023-01-09T02:06:22;77.60;2227.20
26272;DHT22;13997;48.902;12.472;2023-01-09T02:08:49;77.60;2227.20
26272;DHT22;13997;48.902;12.472;2023-01-09T02:11:17;77.60;2227.20
26272;DHT22;13997;48.902;12.472;2023-01-09T02:13:43;77.70;2227.20
26272;DHT22;13997;48.902;12.472;2023-01-09T02:24:43;77.70;2227.20
26272;DHT22;13997;48.902;12.472;2023-01-09T02:30:28;77.70;2227.20
26272;DHT22;13997;48.902;12.472;2023-01-09T02:38:28;102.40;2227.20
26272;DHT22;13997;48.902;12.472;2023-01-09T02:41:03;102.50;2227.20
26272;DHT22;13997;48.902;12.472;2023-01-09T02:43:30;102.50;2227.20
26272;DHT22;13997;48.902;12.472;2023-01-09T02:45:56;102.50;2227.20
26272;DHT22;13997;48.902;12.472;2023-01-09T02:48:22;102.40;2227.20
26272;DHT22;13997;48.902;12.472;2023-01-09T02:51:12;102.40;2227.20
26272;DHT22;13997;48.902;12.472;2023-01-09T02:54:25;102.40;2227.20
26272;DHT22;13997;48.902;12.472;2023-01-09T02:56:47;102.40;2227.20
26272;DHT22;13997;48.902;12.472;2023-01-09T03:00:03;77.70;2227.20
26272;DHT22;13997;48.902;12.472;2023-01-09T03:02:30;77.60;2227.20
26272;DHT22;13997;48.902;12.472;2023-01-09T03:05:28;77.70;2227.20
26272;DHT22;13997;48.902;12.472;2023-01-09T03:08:00;77.70;2227.20
26272;DHT22;13997;48.902;12.472;2023-01-09T03:12:52;77.70;2227.20
26272;DHT22;13997;48.902;12.472;2023-01-09T03:15:23;77.60;2227.20
26272;DHT22;13997;48.902;12.472;2023-01-09T03:17:50;77.60;2227.20
26272;DHT22;13997;48.902;12.472;2023-01-09T03:20:21;77.60;2227.20
26272;DHT22;13997;48.902;12.472;2023-01-09T03:22:56;77.60;2227.20
26272;DHT22;13997;48.902;12.472;2023-01-09T03:25:23;77.50;2227.20
26272;DHT22;13997;48.902;12.472;2023-01-09T03:27:53;77.50;2227.20
26272;DHT22;13997;48.902;12.472;2023-01-09T03:30:19;77.50;2227.20
26272;DHT22;13997;48.902;12.472;2023-01-09T03:32:45;77.60;2227.20
26272;DHT22;13997;48.902;12.472;2023-01-09T03:35:10;77.60;2227.20
26272;DHT22;13997;48.902;12.472;2023-01-09T03:37:36;77.60;2227.20
26272;DHT22;13997;48.902;12.472;2023-01-09T03:40:02;77.60;2227.20
26272;DHT22;13997;48.902;12.472;2023-01-09T03:42:27;77.60;2227.20
26272;DHT22;13997;48.902;12.472;2023-01-09T03:44:53;77.60;2227.20
26272;DHT22;13997;48.902;12.472;2023-01-09T03:47:18;77.70;2227.20
26272;DHT22;13997;48.902;12.472;2023-01-09T03:49:44;77.60;2227.20
26272;DHT22;13997;48.902;12.472;2023-01-09T03:52:09;77.60;2227.20
26272;DHT22;13997;48.902;12.472;2023-01-09T03:54:38;77.70;2227.20
26272;DHT22;13997;48.902;12.472;2023-01-09T03:57:04;77.70;2227.20
26272;DHT22;13997;48.902;12.472;2023-01-09T03:59:29;77.70;2227.20
26272;DHT22;13997;48.902;12.472;2023-01-09T04:01:55;77.70;2227.20
26272;DHT22;13997;48.902;12.472;2023-01-09T04:04:20;77.70;2227.20
26272;DHT22;13997;48.902;12.472;2023-01-09T04:06:46;77.70;2227.20
26272;DHT22;13997;48.902;12.472;2023-01-09T04:09:11;77.70;2227.20
26272;DHT22;13997;48.902;12.472;2023-01-09T04:11:37;102.40;2227.20
26272;DHT22;13997;48.902;12.472;2023-01-09T04:14:03;102.40;2227.20
26272;DHT22;13997;48.902;12.472;2023-01-09T04:16:28;102.40;2227.20
26272;DHT22;13997;48.902;12.472;2023-01-09T04:18:54;102.40;2227.20
26272;DHT22;13997;48.902;12.472;2023-01-09T04:21:20;102.40;2227.20
26272;DHT22;13997;48.902;12.472;2023-01-09T04:23:45;102.40;2227.20
26272;DHT22;13997;48.902;12.472;2023-01-09T04:26:11;102.40;2227.20
26272;DHT22;13997;48.902;12.472;2023-01-09T04:28:36;102.40;2227.20
26272;DHT22;13997;48.902;12.472;2023-01-09T04:31:02;102.40;2227.20
26272;DHT22;13997;48.902;12.472;2023-01-09T04:33:28;102.40;2227.20
26272;DHT22;13997;48.902;12.472;2023-01-09T04:35:53;102.40;2227.20
26272;DHT22;13997;48.902;12.472;2023-01-09T04:38:19;102.40;2227.20
26272;DHT22;13997;48.902;12.472;2023-01-09T04:40:46;102.40;2227.20
26272;DHT22;13997;48.902;12.472;2023-01-09T04:43:13;102.40;2227.20
26272;DHT22;13997;48.902;12.472;2023-01-09T04:45:38;102.40;2227.20
26272;DHT22;13997;48.902;12.472;2023-01-09T04:48:04;102.40;2227.20
26272;DHT22;13997;48.902;12.472;2023-01-09T04:50:30;102.50;2227.20
26272;DHT22;13997;48.902;12.472;2023-01-09T04:52:55;102.50;2227.20
26272;DHT22;13997;48.902;12.472;2023-01-09T04:55:21;102.50;2227.20
26272;DHT22;13997;48.902;12.472;2023-01-09T04:57:47;102.50;2227.20
26272;DHT22;13997;48.902;12.472;2023-01-09T05:00:13;102.50;2227.20
26272;DHT22;13997;48.902;12.472;2023-01-09T05:02:39;102.50;2227.20
26272;DHT22;13997;48.902;12.472;2023-01-09T05:05:07;102.50;2227.20
26272;DHT22;13997;48.902;12.472;2023-01-09T05:07:33;102.60;2227.20
26272;DHT22;13997;48.902;12.472;2023-01-09T05:09:58;102.60;2227.20
26272;DHT22;13997;48.902;12.472;2023-01-09T05:12:24;102.60;2227.20
26272;DHT22;13997;48.902;12.472;2023-01-09T05:14:50;102.60;2227.20
26272;DHT22;13997;48.902;12.472;2023-01-09T05:17:15;102.60;2227.20
26272;DHT22;13997;48.902;12.472;2023-01-09T05:19:41;102.60;2227.20
26272;DHT22;13997;48.902;12.472;2023-01-09T05:22:07;102.70;2227.20
26272;DHT22;13997;48.902;12.472;2023-01-09T05:24:32;102.70;2227.20
26272;DHT22;13997;48.902;12.472;2023-01-09T05:26:58;102.70;2227.20
26272;DHT22;13997;48.902;12.472;2023-01-09T05:29:24;102.70;2227.20
26272;DHT22;13997;48.902;12.472;2023-01-09T05:31:49;102.70;2227.20
26272;DHT22;13997;48.902;12.472;2023-01-09T05:34:17;102.70;2227.20
26272;DHT22;13997;48.902;12.472;2023-01-09T05:36:42;102.70;2227.20
26272;DHT22;13997;48.902;12.472;2023-01-09T05:39:09;102.70;2227.20
26272;DHT22;13997;48.902;12.472;2023-01-09T05:41:34;102.70;2227.20
26272;DHT22;13997;48.902;12.472;2023-01-09T05:44:00;102.70;2227.20
26272;DHT22;13997;48.902;12.472;2023-01-09T05:46:25;102.60;2227.20
26272;DHT22;13997;48.902;12.472;2023-01-09T05:48:51;102.60;2227.20
26272;DHT22;13997;48.902;12.472;2023-01-09T05:51:17;102.60;2227.20
26272;DHT22;13997;48.902;12.472;2023-01-09T05:53:42;102.60;2227.20
26272;DHT22;13997;48.902;12.472;2023-01-09T05:56:08;102.60;2227.20
26272;DHT22;13997;48.902;12.472;2023-01-09T05:58:33;102.60;2227.20
26272;DHT22;13997;48.902;12.472;2023-01-09T06:00:59;102.60;2227.20
26272;DHT22;13997;48.902;12.472;2023-01-09T06:03:25;102.60;2227.20
26272;DHT22;13997;48.902;12.472;2023-01-09T06:05:50;102.60;2227.20
26272;DHT22;13997;48.902;12.472;2023-01-09T06:08:16;102.60;2227.20
26272;DHT22;13997;48.902;12.472;2023-01-09T06:10:42;102.60;2227.20
26272;DHT22;13997;48.902;12.472;2023-01-09T06:13:07;102.60;2227.20
26272;DHT22;13997;48.902;12.472;2023-01-09T06:15:33;102.70;2227.20
26272;DHT22;13997;48.902;12.472;2023-01-09T06:17:58;102.70;2227.20
26272;DHT22;13997;48.902;12.472;2023-01-09T06:20:24;102.70;2227.20
26272;DHT22;13997;48.902;12.472;2023-01-09T06:22:50;102.70;2227.20
26272;DHT22;13997;48.902;12.472;2023-01-09T06:25:17;102.60;2227.20
26272;DHT22;13997;48.902;12.472;2023-01-09T06:27:43;102.70;2227.20
26272;DHT22;13997;48.902;12.472;2023-01-09T06:30:09;102.70;2227.20
26272;DHT22;13997;48.902;12.472;2023-01-09T06:32:35;102.70;2227.20
26272;DHT22;13997;48.902;12.472;2023-01-09T06:35:00;102.80;2227.20
26272;DHT22;13997;48.902;12.472;2023-01-09T06:37:27;102.80;2227.20
26272;DHT22;13997;48.902;12.472;2023-01-09T06:39:52;102.80;2227.20
26272;DHT22;13997;48.902;12.472;2023-01-09T06:42:19;102.80;2227.20
26272;DHT22;13997;48.902;12.472;2023-01-09T06:44:45;102.80;2227.20
26272;DHT22;13997;48.902;12.472;2023-01-09T06:47:10;102.80;2227.20
26272;DHT22;13997;48.902;12.472;2023-01-09T06:49:36;102.80;2227.20
26272;DHT22;13997;48.902;12.472;2023-01-09T06:52:01;102.80;2227.20
26272;DHT22;13997;48.902;12.472;2023-01-09T06:54:32;102.80;2227.20
26272;DHT22;13997;48.902;12.472;2023-01-09T06:56:58;102.80;2227.20
26272;DHT22;13997;48.902;12.472;2023-01-09T06:59:23;102.80;2227.20
26272;DHT22;13997;48.902;12.472;2023-01-09T07:01:49;102.80;2227.20
26272;DHT22;13997;48.902;12.472;2023-01-09T07:04:15;102.80;2227.20
26272;DHT22;13997;48.902;12.472;2023-01-09T07:06:42;102.80;2227.20
26272;DHT22;13997;48.902;12.472;2023-01-09T07:09:08;102.80;2227.20
26272;DHT22;13997;48.902;12.472;2023-01-09T07:11:38;102.80;2227.20
26272;DHT22;13997;48.902;12.472;2023-01-09T07:14:03;102.80;2227.20
26272;DHT22;13997;48.902;12.472;2023-01-09T07:16:29;102.80;2227.20
26272;DHT22;13997;48.902;12.472;2023-01-09T07:18:54;102.80;2227.20
26272;DHT22;13997;48.902;12.472;2023-01-09T07:21:20;102.80;2227.20
26272;DHT22;13997;48.902;12.472;2023-01-09T07:23:46;102.80;2227.20
26272;DHT22;13997;48.902;12.472;2023-01-09T07:26:11;102.80;2227.20
26272;DHT22;13997;48.902;12.472;2023-01-09T07:28:37;102.80;2227.20
26272;DHT22;13997;48.902;12.472;2023-01-09T07:31:03;102.80;2227.20
26272;DHT22;13997;48.902;12.472;2023-01-09T07:33:31;102.90;2227.20
26272;DHT22;13997;48.902;12.472;2023-01-09T07:35:56;102.90;2227.20
26272;DHT22;13997;48.902;12.472;2023-01-09T07:38:22;102.90;2227.20
26272;DHT22;13997;48.902;12.472;2023-01-09T07:40:47;102.90;2227.20
26272;DHT22;13997;48.902;12.472;2023-01-09T07:43:13;102.90;2227.20
26272;DHT22;13997;48.902;12.472;2023-01-09T07:45:38;102.90;2227.20
26272;DHT22;13997;48.902;12.472;2023-01-09T07:48:04;103.00;2227.20
26272;DHT22;13997;48.902;12.472;2023-01-09T07:50:31;103.00;2227.20
26272;DHT22;13997;48.902;12.472;2023-01-09T07:52:56;103.00;2227.20
26272;DHT22;13997;48.902;12.472;2023-01-09T07:55:22;103.00;2227.20
26272;DHT22;13997;48.902;12.472;2023-01-09T07:57:48;103.00;2227.20
26272;DHT22;13997;48.902;12.472;2023-01-09T08:00:14;103.00;2227.20
26272;DHT22;13997;48.902;12.472;2023-01-09T08:02:40;103.00;2227.20
26272;DHT22;13997;48.902;12.472;2023-01-09T08:05:06;103.00;2227.20
26272;DHT22;13997;48.902;12.472;2023-01-09T08:07:34;103.00;2227.20
26272;DHT22;13997;48.902;12.472;2023-01-09T08:09:59;103.00;2227.20
26272;DHT22;13997;48.902;12.472;2023-01-09T08:12:25;103.00;2227.20
26272;DHT22;13997;48.902;12.472;2023-01-09T08:14:50;103.00;2227.20
26272;DHT22;13997;48.902;12.472;2023-01-09T08:17:16;103.10;2227.20
26272;DHT22;13997;48.902;12.472;2023-01-09T08:19:43;103.10;2227.20
26272;DHT22;13997;48.902;12.472;2023-01-09T08:22:09;103.10;2227.20
26272;DHT22;13997;48.902;12.472;2023-01-09T08:24:35;103.20;2227.20
26272;DHT22;13997;48.902;12.472;2023-01-09T08:27:01;103.20;2227.20
26272;DHT22;13997;48.902;12.472;2023-01-09T08:29:26;103.20;2227.20
26272;DHT22;13997;48.902;12.472;2023-01-09T08:31:53;103.20;2227.20
26272;DHT22;13997;48.902;12.472;2023-01-09T08:34:19;103.20;2227.20
26272;DHT22;13997;48.902;12.472;2023-01-09T08:36:44;103.30;2227.20
26272;DHT22;13997;48.902;12.472;2023-01-09T08:39:10;128.00;2252.80
26272;DHT22;13997;48.902;12.472;2023-01-09T08:41:36;128.10;2252.80
26272;DHT22;13997;48.902;12.472;2023-01-09T08:44:20;128.20;2252.80
26272;DHT22;13997;48.902;12.472;2023-01-09T08:47:04;128.40;2252.80
26272;DHT22;13997;48.902;12.472;2023-01-09T08:49:30;128.50;2252.80
26272;DHT22;13997;48.902;12.472;2023-01-09T08:51:56;128.60;2252.80
26272;DHT22;13997;48.902;12.472;2023-01-09T08:54:21;128.70;2252.80
26272;DHT22;13997;48.902;12.472;2023-01-09T08:56:47;128.70;2252.80
26272;DHT22;13997;48.902;12.472;2023-01-09T08:59:14;128.80;2252.80
26272;DHT22;13997;48.902;12.472;2023-01-09T09:01:39;128.90;2252.80
26272;DHT22;13997;48.902;12.472;2023-01-09T09:04:05;128.90;2252.80
26272;DHT22;13997;48.902;12.472;2023-01-09T09:06:32;128.90;2252.80
26272;DHT22;13997;48.902;12.472;2023-01-09T09:08:58;153.60;2252.80
26272;DHT22;13997;48.902;12.472;2023-01-09T09:11:28;153.60;2252.80
26272;DHT22;13997;48.902;12.472;2023-01-09T09:13:55;153.70;2252.80
26272;DHT22;13997;48.902;12.472;2023-01-09T09:16:20;153.70;2252.80
26272;DHT22;13997;48.902;12.472;2023-01-09T09:18:46;153.80;2252.80
26272;DHT22;13997;48.902;12.472;2023-01-09T09:21:11;153.90;2252.80
26272;DHT22;13997;48.902;12.472;2023-01-09T09:23:37;154.00;2252.80
26272;DHT22;13997;48.902;12.472;2023-01-09T09:26:03;154.10;2252.80
26272;DHT22;13997;48.902;12.472;2023-01-09T09:28:29;154.20;2252.80
26272;DHT22;13997;48.902;12.472;2023-01-09T09:30:55;154.20;2252.80
26272;DHT22;13997;48.902;12.472;2023-01-09T09:33:20;154.20;2252.80
26272;DHT22;13997;48.902;12.472;2023-01-09T09:35:46;154.20;2252.80
26272;DHT22;13997;48.902;12.472;2023-01-09T09:38:11;154.20;2252.80
26272;DHT22;13997;48.902;12.472;2023-01-09T09:43:16;154.20;2252.80
26272;DHT22;13997;48.902;12.472;2023-01-09T09:46:41;154.10;2252.80
26272;DHT22;13997;48.902;12.472;2023-01-09T09:52:03;154.10;2252.80
26272;DHT22;13997;48.902;12.472;2023-01-09T09:54:34;154.10;2252.80
26272;DHT22;13997;48.902;12.472;2023-01-09T09:57:03;154.10;2252.80
26272;DHT22;13997;48.902;12.472;2023-01-09T09:59:35;154.10;2252.80
26272;DHT22;13997;48.902;12.472;2023-01-09T10:04:37;154.10;2252.80
26272;DHT22;13997;48.902;12.472;2023-01-09T10:07:06;154.20;2252.80
26272;DHT22;13997;48.902;12.472;2023-01-09T10:09:42;154.20;2252.80
26272;DHT22;13997;48.902;12.472;2023-01-09T10:15:01;154.30;2252.80
26272;DHT22;13997;48.902;12.472;2023-01-09T10:26:03;154.50;2252.80
26272;DHT22;13997;48.902;12.472;2023-01-09T10:36:48;179.30;2252.80
26272;DHT22;13997;48.902;12.472;2023-01-09T10:39:35;179.30;2252.80
26272;DHT22;13997;48.902;12.472;2023-01-09T10:42:17;179.30;2252.80
26272;DHT22;13997;48.902;12.472;2023-01-09T10:44:58;179.40;2252.80
26272;DHT22;13997;48.902;12.472;2023-01-09T10:47:33;179.40;2252.80
26272;DHT22;13997;48.902;12.472;2023-01-09T10:50:14;179.40;2252.80
26272;DHT22;13997;48.902;12.472;2023-01-09T10:52:44;179.30;2252.80
26272;DHT22;13997;48.902;12.472;2023-01-09T10:55:56;179.30;2252.80
26272;DHT22;13997;48.902;12.472;2023-01-09T10:58:14;179.40;2252.80
26272;DHT22;13997;48.902;12.472;2023-01-09T11:00:40;179.30;2252.80
26272;DHT22;13997;48.902;12.472;2023-01-09T11:03:20;179.30;2252.80
26272;DHT22;13997;48.902;12.472;2023-01-09T11:05:55;179.30;2252.80
26272;DHT22;13997;48.902;12.472;2023-01-09T11:08:38;179.30;2252.80
26272;DHT22;13997;48.902;12.472;2023-01-09T11:11:07;179.40;2252.80
26272;DHT22;13997;48.902;12.472;2023-01-09T11:13:34;179.40;2252.80
26272;DHT22;13997;48.902;12.472;2023-01-09T11:18:39;179.40;2252.80
26272;DHT22;13997;48.902;12.472;2023-01-09T11:21:32;179.40;2252.80
26272;DHT22;13997;48.902;12.472;2023-01-09T11:24:26;179.40;2252.80
26272;DHT22;13997;48.902;12.472;2023-01-09T11:29:40;179.40;2252.80
26272;DHT22;13997;48.902;12.472;2023-01-09T11:32:21;179.40;2252.80
26272;DHT22;13997;48.902;12.472;2023-01-09T11:34:47;179.40;2252.80
26272;DHT22;13997;48.902;12.472;2023-01-09T11:37:23;179.40;2252.80
26272;DHT22;13997;48.902;12.472;2023-01-09T11:39:50;179.40;2252.80
26272;DHT22;13997;48.902;12.472;2023-01-09T11:42:27;179.40;2252.80
26272;DHT22;13997;48.902;12.472;2023-01-09T11:45:19;179.40;2252.80
26272;DHT22;13997;48.902;12.472;2023-01-09T11:47:46;179.50;2252.80
26272;DHT22;13997;48.902;12.472;2023-01-09T11:50:18;179.50;2252.80
26272;DHT22;13997;48.902;12.472;2023-01-09T11:52:46;179.50;2252.80
26272;DHT22;13997;48.902;12.472;2023-01-09T11:55:15;179.50;2252.80
26272;DHT22;13997;48.902;12.472;2023-01-09T11:57:43;179.60;2252.80
26272;DHT22;13997;48.902;12.472;2023-01-09T12:00:27;179.60;2252.80
26272;DHT22;13997;48.902;12.472;2023-01-09T12:06:14;179.60;2252.80
26272;DHT22;13997;48.902;12.472;2023-01-09T12:11:35;179.60;2252.80
26272;DHT22;13997;48.902;12.472;2023-01-09T12:17:00;179.60;2252.80
26272;DHT22;13997;48.902;12.472;2023-01-09T12:23:09;179.70;2252.80
26272;DHT22;13997;48.902;12.472;2023-01-09T12:25:43;179.70;2252.80
26272;DHT22;13997;48.902;12.472;2023-01-09T12:29:23;179.70;2252.80
26272;DHT22;13997;48.902;12.472;2023-01-09T12:45:45;179.70;2252.80
26272;DHT22;13997;48.902;12.472;2023-01-09T12:51:55;179.70;2252.80
26272;DHT22;13997;48.902;12.472;2023-01-09T12:57:37;179.80;2252.80
26272;DHT22;13997;48.902;12.472;2023-01-09T13:00:14;179.80;2252.80
26272;DHT22;13997;48.902;12.472;2023-01-09T13:05:34;179.80;2252.80
26272;DHT22;13997;48.902;12.472;2023-01-09T13:08:23;179.70;2252.80
26272;DHT22;13997;48.902;12.472;2023-01-09T13:13:43;179.70;2252.80
26272;DHT22;13997;48.902;12.472;2023-01-09T13:16:18;179.70;2252.80
26272;DHT22;13997;48.902;12.472;2023-01-09T13:18:55;179.60;2252.80
26272;DHT22;13997;48.902;12.472;2023-01-09T13:21:20;179.60;2252.80
26272;DHT22;13997;48.902;12.472;2023-01-09T13:24:00;179.60;2252.80
26272;DHT22;13997;48.902;12.472;2023-01-09T13:26:37;179.60;2252.80
26272;DHT22;13997;48.902;12.472;2023-01-09T13:29:28;179.60;2252.80
26272;DHT22;13997;48.902;12.472;2023-01-09T13:34:47;179.60;2252.80
26272;DHT22;13997;48.902;12.472;2023-01-09T13:37:34;179.60;2252.80
26272;DHT22;13997;48.902;12.472;2023-01-09T13:40:03;179.60;2252.80
26272;DHT22;13997;48.902;12.472;2023-01-09T13:42:30;179.60;2252.80
26272;DHT22;13997;48.902;12.472;2023-01-09T13:45:33;179.60;2252.80
26272;DHT22;13997;48.902;12.472;2023-01-09T13:50:45;179.60;2252.80
26272;DHT22;13997;48.902;12.472;2023-01-09T14:01:00;179.70;2252.80
26272;DHT22;13997;48.902;12.472;2023-01-09T14:03:49;179.80;2252.80
26272;DHT22;13997;48.902;12.472;2023-01-09T14:06:17;179.80;2252.80
26272;DHT22;13997;48.902;12.472;2023-01-09T14:08:44;179.80;2252.80
26272;DHT22;13997;48.902;12.472;2023-01-09T14:11:17;179.80;2252.80
26272;DHT22;13997;48.902;12.472;2023-01-09T14:13:45;179.80;2252.80
26272;DHT22;13997;48.902;12.472;2023-01-09T14:16:21;179.80;2252.80
26272;DHT22;13997;48.902;12.472;2023-01-09T14:19:07;179.80;2252.80
26272;DHT22;13997;48.902;12.472;2023-01-09T14:21:49;179.80;2252.80
26272;DHT22;13997;48.902;12.472;2023-01-09T14:24:23;179.80;2252.80
26272;DHT22;13997;48.902;12.472;2023-01-09T14:26:53;179.80;2252.80
26272;DHT22;13997;48.902;12.472;2023-01-09T14:29:40;179.80;2252.80
26272;DHT22;13997;48.902;12.472;2023-01-09T14:35:02;179.90;2252.80
26272;DHT22;13997;48.902;12.472;2023-01-09T14:37:32;179.90;2252.80
26272;DHT22;13997;48.902;12.472;2023-01-09T14:39:58;179.80;2252.80
26272;DHT22;13997;48.902;12.472;2023-01-09T14:42:27;179.80;2252.80
26272;DHT22;13997;48.902;12.472;2023-01-09T14:45:05;179.80;2252.80
26272;DHT22;13997;48.902;12.472;2023-01-09T14:47:44;179.80;2252.80
26272;DHT22;13997;48.902;12.472;2023-01-09T14:50:23;179.80;2252.80
26272;DHT22;13997;48.902;12.472;2023-01-09T14:53:06;179.80;2252.80
26272;DHT22;13997;48.902;12.472;2023-01-09T14:58:11;179.90;2252.80
26272;DHT22;13997;48.902;12.472;2023-01-09T15:00:52;179.90;2252.80
26272;DHT22;13997;48.902;12.472;2023-01-09T15:03:20;179.90;2252.80
26272;DHT22;13997;48.902;12.472;2023-01-09T15:05:47;179.90;2252.80
26272;DHT22;13997;48.902;12.472;2023-01-09T15:08:16;179.90;2252.80
26272;DHT22;13997;48.902;12.472;2023-01-09T15:10:45;179.90;2252.80
26272;DHT22;13997;48.902;12.472;2023-01-09T15:13:17;179.90;2252.80
26272;DHT22;13997;48.902;12.472;2023-01-09T15:15:45;179.90;2252.80
26272;DHT22;13997;48.902;12.472;2023-01-09T15:18:19;179.90;2252.80
26272;DHT22;13997;48.902;12.472;2023-01-09T15:20:45;179.90;2252.80
26272;DHT22;13997;48.902;12.472;2023-01-09T15:23:25;179.80;2252.80
26272;DHT22;13997;48.902;12.472;2023-01-09T15:25:54;179.70;2252.80
26272;DHT22;13997;48.902;12.472;2023-01-09T15:28:26;179.70;2252.80
26272;DHT22;13997;48.902;12.472;2023-01-09T15:31:00;179.60;2252.80
26272;DHT22;13997;48.902;12.472;2023-01-09T15:33:26;179.60;2252.80
26272;DHT22;13997;48.902;12.472;2023-01-09T15:35:52;179.60;2252.80
26272;DHT22;13997;48.902;12.472;2023-01-09T15:38:26;179.50;2252.80
26272;DHT22;13997;48.902;12.472;2023-01-09T15:41:03;179.50;2252.80
26272;DHT22;13997;48.902;12.472;2023-01-09T15:43:30;179.40;2252.80
26272;DHT22;13997;48.902;12.472;2023-01-09T15:45:56;179.40;2252.80
26272;DHT22;13997;48.902;12.472;2023-01-09T15:48:24;179.30;2252.80
26272;DHT22;13997;48.902;12.472;2023-01-09T15:50:57;179.20;2252.80
26272;DHT22;13997;48.902;12.472;2023-01-09T15:53:26;179.20;2252.80
26272;DHT22;13997;48.902;12.472;2023-01-09T15:58:31;154.50;2252.80
26272;DHT22;13997;48.902;12.472;2023-01-09T16:01:25;154.40;2252.80
26272;DHT22;13997;48.902;12.472;2023-01-09T16:03:54;154.40;2252.80
26272;DHT22;13997;48.902;12.472;2023-01-09T16:06:27;154.30;2252.80
26272;DHT22;13997;48.902;12.472;2023-01-09T16:08:54;154.30;2252.80
26272;DHT22;13997;48.902;12.472;2023-01-09T16:11:27;154.30;2252.80
26272;DHT22;13997;48.902;12.472;2023-01-09T16:13:57;154.20;2252.80
26272;DHT22;13997;48.902;12.472;2023-01-09T16:21:37;154.00;2252.80
26272;DHT22;13997;48.902;12.472;2023-01-09T16:26:33;153.90;2252.80
26272;DHT22;13997;48.902;12.472;2023-01-09T16:29:34;153.90;2252.80
26272;DHT22;13997;48.902;12.472;2023-01-09T16:32:02;153.70;2252.80
26272;DHT22;13997;48.902;12.472;2023-01-09T16:34:29;153.70;2252.80
26272;DHT22;13997;48.902;12.472;2023-01-09T16:36:55;153.70;2252.80
26272;DHT22;13997;48.902;12.472;2023-01-09T16:39:21;153.60;2252.80
26272;DHT22;13997;48.902;12.472;2023-01-09T16:41:46;153.60;2252.80
26272;DHT22;13997;48.902;12.472;2023-01-09T16:44:31;153.60;2252.80
26272;DHT22;13997;48.902;12.472;2023-01-09T16:46:57;153.60;2252.80
26272;DHT22;13997;48.902;12.472;2023-01-09T16:49:24;153.60;2252.80
26272;DHT22;13997;48.902;12.472;2023-01-09T16:51:52;153.60;2252.80
26272;DHT22;13997;48.902;12.472;2023-01-09T16:54:18;153.60;2252.80